createdAt,value
2019-04-10T00:02:00.140Z,4.30
2019-04-10T00:04:29.588Z,4.20
2019-04-10T00:07:08.386Z,4.20
2019-04-10T00:09:29.090Z,4.30
2019-04-10T00:11:58.910Z,4.30
2019-04-10T00:14:28.279Z,4.30
2019-04-10T00:16:57.493Z,4.30
2019-04-10T00:19:26.718Z,4.30
2019-04-10T00:21:55.741Z,4.30
2019-04-10T00:24:24.540Z,4.20
2019-04-10T00:26:54.371Z,4.20
2019-04-10T00:29:24.434Z,4.20
2019-04-10T00:31:54.210Z,4.30
2019-04-10T00:34:23.343Z,4.30
2019-04-10T00:36:53.271Z,4.30
2019-04-10T00:39:22.330Z,4.30
2019-04-10T00:41:52.510Z,4.30
2019-04-10T00:44:21.638Z,4.20
2019-04-10T00:46:50.731Z,4.20
2019-04-10T00:49:19.769Z,4.20
2019-04-10T00:51:49.912Z,4.10
2019-04-10T00:54:19.052Z,4.10
2019-04-10T00:56:48.552Z,4.10
2019-04-10T00:59:17.803Z,4.20
2019-04-10T01:01:47.793Z,4.20
2019-04-10T01:04:16.861Z,4.20
2019-04-10T01:06:46.296Z,4.20
2019-04-10T01:09:15.443Z,4.20
2019-04-10T01:11:45.469Z,4.20
2019-04-10T01:14:15.790Z,4.20
2019-04-10T01:16:44.733Z,4.10
2019-04-10T01:19:13.633Z,4.10
2019-04-10T01:21:42.533Z,4.10
2019-04-10T01:24:11.419Z,4.10
2019-04-10T01:26:40.307Z,4.10
2019-04-10T01:29:09.333Z,4.10
2019-04-10T01:31:39.329Z,4.10
2019-04-10T01:34:09.365Z,4.10
2019-04-10T01:36:39.386Z,4.10
2019-04-10T01:39:10.440Z,4.10
2019-04-10T01:41:39.864Z,4.10
2019-04-10T01:44:08.819Z,4.10
2019-04-10T01:46:38.136Z,4.10
2019-04-10T01:49:07.151Z,4.20
2019-04-10T01:51:36.234Z,4.20
2019-04-10T01:54:05.014Z,4.20
2019-04-10T01:56:36.323Z,4.20
2019-04-10T01:59:05.645Z,4.20
2019-04-10T02:01:39.271Z,4.20
2019-04-10T02:04:08.902Z,4.30
2019-04-10T02:06:37.967Z,4.30
2019-04-10T02:09:09.215Z,4.30
2019-04-10T02:11:39.881Z,4.20
2019-04-10T02:14:08.971Z,4.30
2019-04-10T02:16:38.910Z,4.30
2019-04-10T02:19:08.230Z,4.30
2019-04-10T02:21:38.027Z,4.20
2019-04-10T02:24:07.095Z,4.20
2019-04-10T02:26:36.210Z,4.20
2019-04-10T02:29:05.085Z,4.20
2019-04-10T02:31:34.602Z,4.20
2019-04-10T02:34:04.805Z,4.20
2019-04-10T02:36:34.468Z,4.30
2019-04-10T02:39:19.424Z,4.30
2019-04-10T02:41:36.424Z,4.30
2019-04-10T02:44:05.536Z,4.30
2019-04-10T02:46:34.537Z,4.30
2019-04-10T02:49:04.202Z,4.40
2019-04-10T02:51:35.063Z,4.40
2019-04-10T02:54:05.038Z,4.40
2019-04-10T02:56:34.370Z,4.40
2019-04-10T02:59:04.979Z,4.40
2019-04-10T03:01:33.931Z,4.30
2019-04-10T03:04:03.398Z,4.30
2019-04-10T03:06:33.575Z,4.30
2019-04-10T03:09:24.124Z,4.30
2019-04-10T03:11:35.836Z,4.30
2019-04-10T03:14:05.387Z,4.30
2019-04-10T03:16:35.384Z,4.30
2019-04-10T03:19:05.329Z,4.30
2019-04-10T03:21:35.342Z,4.40
2019-04-10T03:24:04.410Z,4.40
2019-04-10T03:26:33.971Z,4.40
2019-04-10T03:29:03.235Z,4.40
2019-04-10T03:31:34.223Z,4.40
2019-04-10T03:34:19.239Z,4.40
2019-04-10T03:36:47.595Z,4.40
2019-04-10T03:39:17.422Z,4.40
2019-04-10T03:41:46.422Z,4.40
2019-04-10T03:44:15.197Z,4.40
2019-04-10T03:53:11.826Z,4.30
2019-04-10T03:55:41.011Z,4.30
2019-04-10T03:58:10.060Z,4.30
2019-04-10T04:00:39.163Z,4.30
2019-04-10T04:03:08.527Z,4.30
2019-04-10T04:05:37.465Z,4.30
2019-04-10T04:08:06.231Z,4.30
2019-04-10T04:10:35.458Z,4.30
2019-04-10T04:13:05.982Z,4.20
2019-04-10T04:15:35.812Z,4.30
2019-04-10T04:18:04.811Z,4.30
2019-04-10T04:20:33.780Z,4.30
2019-04-10T04:23:03.458Z,4.30
2019-04-10T04:25:32.563Z,4.40
2019-04-10T04:28:02.482Z,4.40
2019-04-10T04:30:32.079Z,4.40
2019-04-10T04:33:01.101Z,4.50
2019-04-10T04:35:31.004Z,4.40
2019-04-10T04:38:00.441Z,4.50
2019-04-10T04:40:30.015Z,4.50
2019-04-10T04:43:00.055Z,4.50
2019-04-10T04:45:29.930Z,4.50
2019-04-10T04:47:59.688Z,4.60
2019-04-10T04:50:29.293Z,4.60
2019-04-10T04:52:58.283Z,4.70
2019-04-10T04:55:27.204Z,4.80
2019-04-10T04:57:55.975Z,4.70
2019-04-10T05:00:25.706Z,4.70
2019-04-10T05:02:55.704Z,4.70
2019-04-10T05:05:25.267Z,4.70
2019-04-10T05:07:59.656Z,4.80
2019-04-10T05:10:25.223Z,4.80
2019-04-10T05:18:57.153Z,4.80
2019-04-10T05:21:25.941Z,4.90
2019-04-10T05:23:55.447Z,4.90
2019-04-10T05:26:24.335Z,5.00
2019-04-10T05:28:53.130Z,5.00
2019-04-10T05:31:21.917Z,5.00
2019-04-10T05:33:51.268Z,5.00
2019-04-10T05:36:20.215Z,5.00
2019-04-10T05:38:48.967Z,5.00
2019-04-10T05:41:17.977Z,5.00
2019-04-10T05:43:46.834Z,5.10
2019-04-10T05:46:16.525Z,5.10
2019-04-10T05:48:46.213Z,5.10
2019-04-10T05:51:15.133Z,5.30
2019-04-10T05:53:44.872Z,5.40
2019-04-10T05:56:13.960Z,5.60
2019-04-10T05:58:44.849Z,5.90
2019-04-10T06:01:13.882Z,6.00
2019-04-10T06:03:42.892Z,6.00
2019-04-10T06:06:12.524Z,6.00
2019-04-10T06:08:41.563Z,6.00
2019-04-10T06:11:10.741Z,6.10
2019-04-10T06:13:40.842Z,6.20
2019-04-10T06:16:09.845Z,6.30
2019-04-10T06:18:39.579Z,6.50
2019-04-10T06:21:08.519Z,6.80
2019-04-10T06:29:35.701Z,7.00
2019-04-10T06:32:05.333Z,7.00
2019-04-10T06:34:34.310Z,7.10
2019-04-10T06:37:04.031Z,7.10
2019-04-10T06:39:33.132Z,7.00
2019-04-10T06:42:02.515Z,6.80
2019-04-10T06:44:32.165Z,6.60
2019-04-10T06:47:02.161Z,6.30
2019-04-10T06:49:31.144Z,6.10
2019-04-10T06:51:59.973Z,6.10
2019-04-10T06:54:28.925Z,6.00
2019-04-10T06:56:58.646Z,6.10
2019-04-10T06:59:28.304Z,6.10
2019-04-10T07:02:10.844Z,6.10
2019-04-10T07:04:28.384Z,6.00
2019-04-10T07:07:03.430Z,6.00
2019-04-10T07:09:27.891Z,6.00
2019-04-10T07:11:59.725Z,6.00
2019-04-10T07:14:27.215Z,6.10
2019-04-10T07:17:01.672Z,6.10
2019-04-10T07:19:26.493Z,6.10
2019-04-10T07:21:55.478Z,6.10
2019-04-10T07:24:25.731Z,6.00
2019-04-10T07:26:55.261Z,6.00
2019-04-10T07:29:26.638Z,5.90
2019-04-10T07:31:54.973Z,6.00
2019-04-10T07:34:25.551Z,5.90
2019-04-10T07:36:54.359Z,5.90
2019-04-10T07:39:26.041Z,5.80
2019-04-10T07:41:53.692Z,5.70
2019-04-10T07:44:22.537Z,5.60
2019-04-10T07:46:51.282Z,5.60
2019-04-10T07:49:21.162Z,5.60
2019-04-10T07:51:50.700Z,5.60
2019-04-10T07:54:21.264Z,5.60
2019-04-10T07:56:50.013Z,5.70
2019-04-10T07:59:18.794Z,6.00
2019-04-10T08:01:47.652Z,6.10
2019-04-10T08:04:16.456Z,6.20
2019-04-10T08:06:45.350Z,6.40
2019-04-10T08:09:14.758Z,6.80
2019-04-10T08:11:44.797Z,7.20
2019-04-10T08:14:14.838Z,7.60
2019-04-10T08:16:43.766Z,8.00
2019-04-10T08:19:12.562Z,8.40
2019-04-10T08:21:42.323Z,8.60
2019-04-10T08:24:12.011Z,8.80
2019-04-10T08:26:40.963Z,8.90
2019-04-10T08:29:09.954Z,9.30
2019-04-10T08:31:39.662Z,9.70
2019-04-10T08:34:08.880Z,10.20
2019-04-10T08:36:37.871Z,10.80
2019-04-10T08:39:07.811Z,10.90
2019-04-10T08:41:37.274Z,10.90
2019-04-10T08:44:06.522Z,10.60
2019-04-10T08:46:35.782Z,10.50
2019-04-10T08:49:05.626Z,10.30
2019-04-10T08:51:35.317Z,10.20
2019-04-10T08:54:04.517Z,10.00
2019-04-10T08:56:33.386Z,9.80
2019-04-10T08:59:02.179Z,9.60
2019-04-10T09:01:31.488Z,9.60
2019-04-10T09:04:01.403Z,9.70
2019-04-10T09:06:31.286Z,9.90
2019-04-10T09:09:01.324Z,9.90
2019-04-10T09:11:32.602Z,9.70
2019-04-10T09:14:01.037Z,9.60
2019-04-10T09:16:30.978Z,9.60
2019-04-10T09:18:59.946Z,9.50
2019-04-10T09:21:28.854Z,9.50
2019-04-10T09:23:58.968Z,9.50
2019-04-10T09:26:28.604Z,9.50
2019-04-10T09:28:57.510Z,9.50
2019-04-10T09:31:26.396Z,9.60
2019-04-10T09:33:55.752Z,9.80
2019-04-10T09:36:24.932Z,10.00
2019-04-10T09:38:54.907Z,10.10
2019-04-10T09:41:23.952Z,10.30
2019-04-10T09:43:53.919Z,10.40
2019-04-10T09:46:22.909Z,10.50
2019-04-10T09:48:51.981Z,10.50
2019-04-10T09:51:21.477Z,10.40
2019-04-10T09:53:51.077Z,10.40
2019-04-10T09:56:19.974Z,10.30
2019-04-10T09:58:49.171Z,10.20
2019-04-10T10:01:18.306Z,10.20
2019-04-10T10:03:47.217Z,10.50
2019-04-10T10:06:25.234Z,10.50
2019-04-10T10:08:46.478Z,10.50
2019-04-10T10:11:15.287Z,10.30
2019-04-10T10:13:44.090Z,10.20
2019-04-10T10:16:12.912Z,10.10
2019-04-10T10:18:41.688Z,10.00
2019-04-10T10:21:10.563Z,9.80
2019-04-10T10:23:40.101Z,9.70
2019-04-10T10:26:09.983Z,9.70
2019-04-10T10:28:39.524Z,9.60
2019-04-10T10:31:08.355Z,9.70
2019-04-10T10:33:37.523Z,9.70
2019-04-10T10:36:07.405Z,9.60
2019-04-10T10:38:36.981Z,9.40
2019-04-10T10:41:06.726Z,9.30
2019-04-10T10:43:36.277Z,9.30
2019-04-10T10:46:05.237Z,9.50
2019-04-10T10:48:33.965Z,9.50
2019-04-10T10:51:04.618Z,9.40
2019-04-10T10:53:34.506Z,9.30
2019-04-10T10:56:04.301Z,9.20
2019-04-10T10:58:33.355Z,9.30
2019-04-10T11:01:03.270Z,9.20
2019-04-10T11:03:32.273Z,9.20
2019-04-10T11:06:01.067Z,9.20
2019-04-10T11:08:29.873Z,9.10
2019-04-10T11:10:59.462Z,9.10
2019-04-10T11:13:30.757Z,9.30
2019-04-10T11:18:30.818Z,9.70
2019-04-10T11:23:30.554Z,10.10
2019-04-10T11:26:02.150Z,10.20
2019-04-10T11:28:32.272Z,10.30
2019-04-10T11:31:01.838Z,10.20
2019-04-10T11:33:30.833Z,10.30
2019-04-10T11:36:00.199Z,10.40
2019-04-10T11:38:29.307Z,10.30
2019-04-10T11:40:59.964Z,10.10
2019-04-10T11:43:30.257Z,9.80
2019-04-10T11:48:30.126Z,9.20
2019-04-10T11:51:01.117Z,9.10
2019-04-10T11:53:32.611Z,8.90
2019-04-10T11:56:05.191Z,8.90
2019-04-10T11:58:31.271Z,8.80
2019-04-10T12:01:02.536Z,8.70
2019-04-10T12:03:31.460Z,8.60
2019-04-10T12:06:04.223Z,8.50
2019-04-10T12:09:00.365Z,8.30
2019-04-10T12:13:30.806Z,8.20
2019-04-10T12:16:00.911Z,8.40
2019-04-10T12:18:30.741Z,8.60
2019-04-10T12:20:59.775Z,9.00
2019-04-10T12:23:29.241Z,9.20
2019-04-10T12:25:59.066Z,9.30
2019-04-10T12:28:28.268Z,9.20
2019-04-10T12:30:57.151Z,9.20
2019-04-10T12:33:25.895Z,9.00
2019-04-10T12:35:54.730Z,8.80
2019-04-10T12:38:23.478Z,8.70
2019-04-10T12:40:52.955Z,8.50
2019-04-10T12:43:22.852Z,8.30
2019-04-10T12:45:52.645Z,8.10
2019-04-10T12:48:22.706Z,7.90
2019-04-10T12:50:52.828Z,7.80
2019-04-10T12:53:21.965Z,7.70
2019-04-10T12:55:51.406Z,7.80
2019-04-10T12:58:20.692Z,7.80
2019-04-10T13:00:50.615Z,7.70
2019-04-10T13:03:19.359Z,7.60
2019-04-10T13:05:49.283Z,7.50
2019-04-10T13:08:22.754Z,7.50
2019-04-10T13:10:48.698Z,7.60
2019-04-10T13:13:17.891Z,7.70
2019-04-10T13:15:47.668Z,7.80
2019-04-10T13:18:16.533Z,7.90
2019-04-10T13:20:46.114Z,8.00
2019-04-10T13:23:16.664Z,8.10
2019-04-10T13:25:56.960Z,8.20
2019-04-10T13:28:17.064Z,8.40
2019-04-10T13:30:51.278Z,8.40
2019-04-10T13:33:16.330Z,8.40
2019-04-10T13:35:46.209Z,8.50
2019-04-10T13:38:24.004Z,8.70
2019-04-10T13:40:45.930Z,8.80
2019-04-10T13:43:15.886Z,8.80
2019-04-10T13:45:45.773Z,8.80
2019-04-10T13:48:14.723Z,8.70
2019-04-10T13:50:44.370Z,8.50
2019-04-10T13:53:13.414Z,8.40
2019-04-10T13:55:42.317Z,8.30
2019-04-10T13:58:11.066Z,8.20
2019-04-10T14:00:41.240Z,8.30
2019-04-10T14:03:10.344Z,8.30
2019-04-10T14:05:39.210Z,8.30
2019-04-10T14:08:08.510Z,8.30
2019-04-10T14:10:40.798Z,8.30
2019-04-10T14:13:07.852Z,8.10
2019-04-10T14:15:37.005Z,8.00
2019-04-10T14:18:06.342Z,8.10
2019-04-10T14:20:35.416Z,8.10
2019-04-10T14:23:12.584Z,8.10
2019-04-10T14:25:45.971Z,8.20
2019-04-10T14:28:14.885Z,8.20
2019-04-10T14:30:45.403Z,8.20
2019-04-10T14:33:14.907Z,8.30
2019-04-10T14:35:44.228Z,8.20
2019-04-10T14:38:14.807Z,8.10
2019-04-10T14:40:45.170Z,7.90
2019-04-10T14:43:14.700Z,7.80
2019-04-10T14:45:43.735Z,7.70
2019-04-10T14:48:12.563Z,7.70
2019-04-10T14:50:41.993Z,7.70
2019-04-10T14:53:11.748Z,7.60
2019-04-10T14:55:41.741Z,7.50
2019-04-10T14:58:20.439Z,7.50
2019-04-10T15:00:46.732Z,7.40
2019-04-10T15:03:16.152Z,7.40
2019-04-10T15:05:50.464Z,7.50
2019-04-10T15:08:15.751Z,7.50
2019-04-10T15:10:44.563Z,7.40
2019-04-10T15:13:17.722Z,7.40
2019-04-10T15:15:46.681Z,7.20
2019-04-10T15:18:15.442Z,7.10
2019-04-10T15:20:45.265Z,6.90
2019-04-10T15:23:15.280Z,6.90
2019-04-10T15:25:44.403Z,6.80
2019-04-10T15:28:13.945Z,6.70
2019-04-10T15:30:43.055Z,6.70
2019-04-10T15:33:12.154Z,6.70
2019-04-10T15:35:41.763Z,6.70
2019-04-10T15:38:11.715Z,6.60
2019-04-10T15:40:40.705Z,6.60
2019-04-10T15:43:10.629Z,6.50
2019-04-10T15:45:39.981Z,6.30
2019-04-10T15:48:09.054Z,6.20
2019-04-10T15:50:39.361Z,6.10
2019-04-10T15:53:09.639Z,6.00
2019-04-10T15:55:38.639Z,5.90
2019-04-10T15:58:08.738Z,5.70
2019-04-10T16:00:37.670Z,5.60
2019-04-10T16:03:06.530Z,5.50
2019-04-10T16:05:35.599Z,5.50
2019-04-10T16:08:04.773Z,5.40
2019-04-10T16:10:41.406Z,5.40
2019-04-10T16:13:12.982Z,5.30
2019-04-10T16:15:43.295Z,5.30
2019-04-10T16:18:16.631Z,5.20
2019-04-10T16:20:47.410Z,5.20
2019-04-10T16:23:24.144Z,5.10
2019-04-10T16:25:54.497Z,5.10
2019-04-10T16:28:23.449Z,4.90
2019-04-10T16:30:53.720Z,4.90
2019-04-10T16:33:23.238Z,4.80
2019-04-10T16:35:52.621Z,4.80
2019-04-10T16:38:22.642Z,4.70
2019-04-10T16:40:52.151Z,4.70
2019-04-10T16:43:22.245Z,4.70
2019-04-10T16:45:51.261Z,4.70
2019-04-10T16:48:20.990Z,4.70
2019-04-10T16:50:49.934Z,4.60
2019-04-10T16:53:18.758Z,4.60
2019-04-10T16:55:49.171Z,4.60
2019-04-10T16:58:18.307Z,4.60
2019-04-10T17:00:47.461Z,4.70
2019-04-10T17:03:17.563Z,4.70
2019-04-10T17:05:46.565Z,4.70
2019-04-10T17:08:16.165Z,4.60
2019-04-10T17:10:45.622Z,4.60
2019-04-10T17:13:14.722Z,4.60
2019-04-10T17:18:49.607Z,4.50
2019-04-10T17:21:19.812Z,4.50
2019-04-10T17:29:58.193Z,4.50
2019-04-10T17:32:29.026Z,4.40
2019-04-10T17:34:58.949Z,4.50
2019-04-10T17:37:27.966Z,4.40
2019-04-10T17:39:57.737Z,4.50
2019-04-10T17:42:28.279Z,4.40
2019-04-10T17:44:58.107Z,4.50
2019-04-10T17:47:27.039Z,4.50
2019-04-10T17:49:56.083Z,4.50
2019-04-10T17:52:25.233Z,4.50
2019-04-10T17:54:55.354Z,4.40
2019-04-10T17:57:33.709Z,4.40
2019-04-10T17:59:54.885Z,4.40
2019-04-10T18:02:23.774Z,4.40
2019-04-10T18:04:52.570Z,4.30
2019-04-10T18:07:21.755Z,4.30
2019-04-10T18:09:50.755Z,4.30
2019-04-10T18:12:19.651Z,4.30
2019-04-10T18:14:49.284Z,4.30
2019-04-10T18:17:18.578Z,4.30
2019-04-10T18:19:47.583Z,4.30
2019-04-10T18:22:16.426Z,4.20
2019-04-10T18:24:45.449Z,4.20
2019-04-10T18:27:14.358Z,4.20
2019-04-10T18:29:43.493Z,4.10
2019-04-10T18:32:13.693Z,4.20
2019-04-10T18:34:42.723Z,4.20
2019-04-10T18:37:14.621Z,4.10
2019-04-10T18:39:42.924Z,4.10
2019-04-10T18:42:11.913Z,4.10
2019-04-10T18:44:41.530Z,4.10
2019-04-10T18:47:11.075Z,4.00
2019-04-10T18:49:40.042Z,4.00
2019-04-10T18:52:08.915Z,4.00
2019-04-10T18:54:37.832Z,4.10
2019-04-10T19:03:23.538Z,4.00
2019-04-10T19:05:58.324Z,4.00
2019-04-10T19:08:28.132Z,4.00
2019-04-10T19:11:10.631Z,4.00
2019-04-10T19:13:28.582Z,3.90
2019-04-10T19:15:57.500Z,3.90
2019-04-10T19:18:28.082Z,3.90
2019-04-10T19:20:58.681Z,3.90
2019-04-10T19:23:27.520Z,3.90
2019-04-10T19:25:56.768Z,3.90
2019-04-10T19:28:33.451Z,3.90
2019-04-10T19:31:08.630Z,3.80
2019-04-10T19:33:31.383Z,3.90
2019-04-10T19:36:00.195Z,3.90
2019-04-10T19:38:33.553Z,3.90
2019-04-10T19:45:07.853Z,3.90
2019-04-10T19:47:36.847Z,3.80
2019-04-10T19:50:06.845Z,3.80
2019-04-10T19:52:36.189Z,3.80
2019-04-10T19:55:07.414Z,3.80
2019-04-10T19:57:39.560Z,3.80
2019-04-10T20:00:14.554Z,3.70
2019-04-10T20:02:43.642Z,3.70
2019-04-10T20:05:15.020Z,3.70
2019-04-10T20:07:43.377Z,3.70
2019-04-10T20:10:12.993Z,3.70
2019-04-10T20:12:42.593Z,3.70
2019-04-10T20:15:12.189Z,3.70
2019-04-10T20:17:41.233Z,3.70
2019-04-10T20:20:13.176Z,3.70
2019-04-10T20:22:42.159Z,3.70
2019-04-10T20:25:12.278Z,3.60
2019-04-10T20:27:44.520Z,3.60
2019-04-10T20:30:13.884Z,3.60
2019-04-10T20:32:44.052Z,3.60
2019-04-10T20:35:12.917Z,3.50
2019-04-10T20:37:42.834Z,3.60
2019-04-10T20:40:11.952Z,3.50
2019-04-10T20:42:40.752Z,3.50
2019-04-10T20:45:09.822Z,3.50
2019-04-10T20:47:39.312Z,3.50
2019-04-10T20:50:08.295Z,3.50
2019-04-10T20:52:39.430Z,3.50
2019-04-10T20:55:09.008Z,3.40
2019-04-10T20:57:38.050Z,3.40
2019-04-10T21:00:09.505Z,3.40
2019-04-10T21:02:38.576Z,3.40
2019-04-10T21:05:09.752Z,3.50
2019-04-10T21:07:37.953Z,3.50
2019-04-10T21:10:06.984Z,3.50
2019-04-10T21:12:36.405Z,3.50
2019-04-10T21:15:06.778Z,3.50
2019-04-10T21:17:35.622Z,3.50
2019-04-10T21:20:07.881Z,3.50
2019-04-10T21:22:36.849Z,3.50
2019-04-10T21:25:06.445Z,3.50
2019-04-10T21:27:35.510Z,3.40
2019-04-10T21:30:15.792Z,3.50
2019-04-10T21:32:53.893Z,3.40
2019-04-10T21:35:33.397Z,3.40
2019-04-10T21:38:02.638Z,3.40
2019-04-10T21:40:32.679Z,3.40
2019-04-10T21:43:01.653Z,3.40
2019-04-10T21:45:30.485Z,3.40
2019-04-10T21:47:59.952Z,3.40
2019-04-10T21:50:29.100Z,3.40
2019-04-10T21:52:57.998Z,3.40
2019-04-10T21:55:26.926Z,3.50
2019-04-10T21:57:55.674Z,3.40
2019-04-10T22:00:42.971Z,3.40
2019-04-10T22:03:11.883Z,3.40
2019-04-10T22:05:42.315Z,3.40
2019-04-10T22:08:19.110Z,3.40
2019-04-10T22:10:50.283Z,3.40
2019-04-10T22:13:19.788Z,3.40
2019-04-10T22:15:49.102Z,3.40
2019-04-10T22:18:17.903Z,3.40
2019-04-10T22:20:47.887Z,3.40
2019-04-10T22:23:17.991Z,3.50
2019-04-10T22:25:47.869Z,3.50
2019-04-10T22:28:17.045Z,3.50
2019-04-10T22:30:45.993Z,3.50
2019-04-10T22:33:15.794Z,3.50
2019-04-10T22:35:44.937Z,3.60
2019-04-10T22:38:13.885Z,3.50
2019-04-10T22:40:42.651Z,3.50
2019-04-10T22:43:11.679Z,3.50
2019-04-10T22:45:40.736Z,3.50
2019-04-10T22:48:09.643Z,3.50
2019-04-10T22:50:38.611Z,3.50
2019-04-10T22:53:08.761Z,3.60
2019-04-10T22:55:38.057Z,3.60
2019-04-10T22:58:07.167Z,3.60
2019-04-10T23:00:36.014Z,3.60
2019-04-10T23:03:05.740Z,3.60
2019-04-10T23:05:34.671Z,3.60
2019-04-10T23:08:03.646Z,3.60
2019-04-10T23:10:33.232Z,3.60
2019-04-10T23:13:05.444Z,3.60
2019-04-10T23:15:33.593Z,3.60
2019-04-10T23:18:03.350Z,3.60
2019-04-10T23:20:32.364Z,3.50
2019-04-10T23:23:01.169Z,3.60
2019-04-10T23:25:29.952Z,3.50
2019-04-10T23:27:58.948Z,3.50
2019-04-10T23:30:28.757Z,3.50
2019-04-10T23:32:57.816Z,3.50
2019-04-10T23:35:27.633Z,3.60
2019-04-10T23:37:57.397Z,3.50
2019-04-10T23:40:27.191Z,3.50
2019-04-10T23:43:07.769Z,3.60
2019-04-10T23:45:26.926Z,3.50
2019-04-10T23:47:56.183Z,3.50
2019-04-10T23:50:26.144Z,3.50
2019-04-10T23:52:56.238Z,3.50
2019-04-10T23:55:26.115Z,3.50
2019-04-10T23:57:55.914Z,3.50
